createdAt,value
2023-05-14T00:01:09.103Z,8.56
2023-05-14T00:03:37.845Z,8.58
2023-05-14T00:06:07.566Z,8.61
2023-05-14T00:08:36.990Z,8.60
2023-05-14T00:11:05.229Z,8.62
2023-05-14T00:13:33.593Z,8.62
2023-05-14T00:16:03.062Z,8.60
2023-05-14T00:18:31.429Z,8.59
2023-05-14T00:20:59.651Z,8.57
2023-05-14T00:23:27.826Z,8.55
2023-05-14T00:25:57.726Z,8.52
2023-05-14T00:28:26.099Z,8.50
2023-05-14T00:30:54.403Z,8.49
2023-05-14T00:33:22.571Z,8.46
2023-05-14T00:35:52.000Z,8.44
2023-05-14T00:38:20.229Z,8.41
2023-05-14T00:40:52.879Z,8.38
2023-05-14T00:43:23.153Z,8.37
2023-05-14T00:45:55.504Z,8.34
2023-05-14T00:48:24.899Z,8.32
2023-05-14T00:50:54.343Z,8.30
2023-05-14T00:53:49.846Z,8.27
2023-05-14T00:56:19.871Z,8.24
2023-05-14T00:58:48.314Z,8.21
2023-05-14T01:01:17.231Z,8.20
2023-05-14T01:03:47.348Z,8.19
2023-05-14T01:06:27.575Z,8.18
2023-05-14T01:09:23.445Z,8.16
2023-05-14T01:12:20.922Z,8.13
2023-05-14T01:15:22.047Z,8.10
2023-05-14T01:18:15.086Z,8.06
2023-05-14T01:20:44.976Z,8.02
2023-05-14T01:23:15.677Z,8.02
2023-05-14T01:25:45.401Z,8.02
2023-05-14T01:28:26.289Z,8.00
2023-05-14T01:31:06.079Z,8.02
2023-05-14T01:33:36.929Z,8.05
2023-05-14T01:36:05.755Z,8.07
2023-05-14T01:38:36.480Z,8.08
2023-05-14T01:41:07.738Z,8.06
2023-05-14T01:43:36.794Z,8.06
2023-05-14T01:46:05.130Z,8.05
2023-05-14T01:48:34.614Z,8.03
2023-05-14T01:51:03.183Z,8.01
2023-05-14T01:53:31.360Z,8.00
2023-05-14T01:55:59.736Z,7.98
2023-05-14T01:58:29.547Z,7.96
2023-05-14T02:00:57.876Z,7.92
2023-05-14T02:03:26.266Z,7.87
2023-05-14T02:05:55.088Z,7.84
2023-05-14T02:08:23.516Z,7.83
2023-05-14T02:10:51.788Z,7.75
2023-05-14T02:13:20.238Z,7.79
2023-05-14T02:15:49.503Z,7.77
2023-05-14T02:18:17.699Z,7.75
2023-05-14T02:21:11.145Z,7.74
2023-05-14T02:23:42.170Z,7.72
2023-05-14T02:26:12.988Z,7.73
2023-05-14T02:28:41.624Z,7.75
2023-05-14T02:31:09.720Z,7.77
2023-05-14T02:33:38.320Z,7.81
2023-05-14T02:36:07.065Z,7.84
2023-05-14T02:38:35.541Z,7.86
2023-05-14T02:41:03.915Z,7.86
2023-05-14T02:47:41.588Z,7.84
2023-05-14T02:50:12.138Z,7.84
2023-05-14T02:52:40.323Z,7.82
2023-05-14T02:55:09.137Z,7.80
2023-05-14T02:57:37.505Z,7.77
2023-05-14T03:00:06.919Z,7.74
2023-05-14T03:02:36.327Z,7.76
2023-05-14T03:05:05.628Z,7.82
2023-05-14T03:07:34.198Z,7.88
2023-05-14T03:10:02.504Z,7.92
2023-05-14T03:12:30.953Z,7.99
2023-05-14T03:14:59.306Z,8.06
2023-05-14T03:17:27.725Z,8.15
2023-05-14T03:19:55.986Z,8.20
2023-05-14T03:22:24.157Z,8.29
2023-05-14T03:24:53.453Z,8.42
2023-05-14T03:27:21.632Z,8.51
2023-05-14T03:29:50.327Z,8.56
2023-05-14T03:32:20.047Z,8.61
2023-05-14T03:34:48.355Z,8.69
2023-05-14T03:37:17.394Z,8.76
2023-05-14T03:39:46.065Z,8.83
2023-05-14T03:42:17.124Z,8.90
2023-05-14T03:44:45.711Z,8.97
2023-05-14T03:47:14.276Z,9.13
2023-05-14T03:49:42.356Z,9.29
2023-05-14T03:52:11.511Z,9.43
2023-05-14T03:54:41.454Z,9.50
2023-05-14T03:57:09.435Z,9.52
2023-05-14T03:59:37.913Z,9.52
2023-05-14T04:02:06.286Z,9.51
2023-05-14T04:04:34.491Z,9.50
2023-05-14T04:07:07.192Z,9.50
2023-05-14T04:09:35.420Z,9.48
2023-05-14T04:12:04.509Z,9.49
2023-05-14T04:14:32.474Z,9.51
2023-05-14T04:21:07.752Z,9.59
2023-05-14T04:23:36.228Z,9.84
2023-05-14T04:26:05.536Z,10.26
2023-05-14T04:28:33.553Z,10.72
2023-05-14T04:31:01.875Z,11.20
2023-05-14T04:33:30.275Z,11.70
2023-05-14T04:35:58.731Z,12.22
2023-05-14T04:38:26.832Z,12.66
2023-05-14T04:40:55.380Z,13.00
2023-05-14T04:43:51.194Z,13.16
2023-05-14T04:46:19.444Z,13.17
2023-05-14T04:48:50.817Z,13.15
2023-05-14T04:51:19.296Z,13.08
2023-05-14T04:53:47.473Z,13.02
2023-05-14T04:56:15.848Z,12.94
2023-05-14T04:58:44.130Z,12.85
2023-05-14T05:01:12.761Z,12.79
2023-05-14T05:03:41.252Z,12.81
2023-05-14T05:06:09.568Z,12.83
2023-05-14T05:08:38.331Z,12.90
2023-05-14T05:11:06.524Z,12.90
2023-05-14T05:13:35.214Z,12.96
2023-05-14T05:16:03.987Z,13.38
2023-05-14T05:18:33.781Z,14.03
2023-05-14T05:21:02.311Z,14.78
2023-05-14T05:23:30.274Z,15.45
2023-05-14T05:25:58.346Z,15.90
2023-05-14T05:28:26.465Z,16.44
2023-05-14T05:30:54.919Z,17.04
2023-05-14T05:33:26.638Z,17.68
2023-05-14T05:35:55.133Z,18.25
2023-05-14T05:38:23.397Z,18.79
2023-05-14T05:40:51.772Z,19.38
2023-05-14T05:43:20.862Z,19.60
2023-05-14T05:45:49.372Z,19.96
2023-05-14T05:48:18.037Z,20.15
2023-05-14T05:50:50.433Z,19.64
2023-05-14T05:53:19.340Z,19.10
2023-05-14T05:55:47.463Z,18.64
2023-05-14T05:58:18.221Z,18.28
2023-05-14T06:00:48.112Z,18.36
2023-05-14T06:03:16.318Z,18.14
2023-05-14T06:05:44.396Z,17.90
2023-05-14T06:08:14.581Z,17.99
2023-05-14T06:10:42.959Z,18.01
2023-05-14T06:13:11.565Z,17.74
2023-05-14T06:15:39.810Z,17.59
2023-05-14T06:18:08.150Z,17.15
2023-05-14T06:20:36.465Z,16.91
2023-05-14T06:23:05.354Z,16.66
2023-05-14T06:25:34.086Z,16.79
2023-05-14T06:28:02.585Z,16.92
2023-05-14T06:30:31.048Z,17.11
2023-05-14T06:33:00.076Z,17.30
2023-05-14T06:35:29.247Z,17.79
2023-05-14T06:37:57.815Z,18.28
2023-05-14T06:40:26.262Z,18.36
2023-05-14T06:42:54.531Z,18.52
2023-05-14T06:45:23.125Z,18.86
2023-05-14T06:47:51.309Z,19.06
2023-05-14T06:50:19.657Z,18.95
2023-05-14T06:52:49.263Z,19.11
2023-05-14T06:55:17.998Z,19.30
2023-05-14T06:57:46.958Z,19.30
2023-05-14T07:00:16.141Z,19.02
2023-05-14T07:02:44.196Z,18.74
2023-05-14T07:05:42.476Z,18.50
2023-05-14T07:08:11.676Z,18.33
2023-05-14T07:10:41.712Z,18.22
2023-05-14T07:13:09.982Z,18.20
2023-05-14T07:15:37.992Z,18.18
2023-05-14T07:18:08.745Z,18.07
2023-05-14T07:20:38.082Z,18.05
2023-05-14T07:23:06.360Z,17.85
2023-05-14T07:25:34.636Z,17.88
2023-05-14T07:28:02.900Z,17.92
2023-05-14T07:30:31.072Z,17.88
2023-05-14T07:32:59.226Z,17.89
2023-05-14T07:35:27.328Z,17.83
2023-05-14T07:37:55.560Z,17.47
2023-05-14T07:40:27.499Z,17.39
2023-05-14T07:42:55.946Z,17.52
2023-05-14T07:45:24.327Z,17.47
2023-05-14T07:47:52.800Z,17.50
2023-05-14T07:50:21.478Z,17.59
2023-05-14T07:52:50.883Z,17.40
2023-05-14T07:55:19.343Z,17.44
2023-05-14T07:57:47.697Z,17.49
2023-05-14T08:00:18.788Z,17.69
2023-05-14T08:02:46.916Z,17.78
2023-05-14T08:05:16.152Z,17.78
2023-05-14T08:07:45.145Z,17.79
2023-05-14T08:10:13.091Z,17.95
2023-05-14T08:12:43.957Z,17.95
2023-05-14T08:15:13.470Z,17.86
2023-05-14T08:17:41.905Z,18.17
2023-05-14T08:20:12.880Z,18.10
2023-05-14T08:22:42.795Z,17.96
2023-05-14T08:25:11.588Z,17.85
2023-05-14T08:27:42.112Z,18.19
2023-05-14T08:30:11.516Z,18.20
2023-05-14T08:32:39.774Z,18.36
2023-05-14T08:35:09.079Z,18.26
2023-05-14T08:37:37.397Z,18.23
2023-05-14T08:40:08.428Z,18.17
2023-05-14T08:42:45.580Z,18.17
2023-05-14T08:45:20.880Z,18.21
2023-05-14T08:47:51.447Z,18.47
2023-05-14T08:50:22.921Z,18.53
2023-05-14T08:52:54.459Z,18.31
2023-05-14T08:55:30.205Z,18.33
2023-05-14T08:57:58.375Z,18.45
2023-05-14T09:00:26.671Z,18.37
2023-05-14T09:02:57.597Z,18.29
2023-05-14T09:05:26.478Z,18.38
2023-05-14T09:07:54.748Z,18.27
2023-05-14T09:10:23.326Z,18.24
2023-05-14T09:12:52.320Z,18.44
2023-05-14T09:15:20.607Z,18.52
2023-05-14T09:17:49.043Z,18.53
2023-05-14T09:20:17.122Z,18.81
2023-05-14T09:22:45.338Z,19.12
2023-05-14T09:25:13.821Z,19.33
2023-05-14T09:27:42.320Z,19.32
2023-05-14T09:30:14.855Z,18.84
2023-05-14T09:32:44.921Z,18.66
2023-05-14T09:35:24.007Z,18.68
2023-05-14T09:37:56.791Z,18.51
2023-05-14T09:40:25.392Z,18.44
2023-05-14T09:42:55.071Z,18.58
2023-05-14T09:45:23.354Z,18.72
2023-05-14T09:47:54.107Z,18.63
2023-05-14T09:50:23.336Z,18.73
2023-05-14T09:52:51.565Z,18.88
2023-05-14T09:55:22.696Z,18.83
2023-05-14T09:57:52.406Z,18.76
2023-05-14T10:00:21.895Z,18.85
2023-05-14T10:02:53.836Z,18.61
2023-05-14T10:05:24.280Z,18.57
2023-05-14T10:07:57.304Z,18.74
2023-05-14T10:10:30.467Z,18.89
2023-05-14T10:13:09.231Z,18.84
2023-05-14T10:15:49.063Z,19.05
2023-05-14T10:18:23.608Z,19.20
2023-05-14T10:24:35.271Z,19.19
2023-05-14T10:27:06.212Z,19.23
2023-05-14T10:29:37.841Z,19.17
2023-05-14T10:37:20.905Z,18.97
2023-05-14T10:40:02.915Z,18.86
2023-05-14T10:42:38.300Z,18.53
2023-05-14T10:45:14.846Z,18.46
2023-05-14T10:47:48.333Z,18.30
2023-05-14T10:50:18.304Z,18.28
2023-05-14T10:52:46.736Z,18.36
2023-05-14T10:55:18.167Z,18.46
2023-05-14T10:57:47.373Z,18.61
2023-05-14T11:00:16.283Z,18.76
2023-05-14T11:02:45.289Z,18.75
2023-05-14T11:05:17.977Z,18.79
2023-05-14T11:07:49.503Z,18.83
2023-05-14T11:10:20.364Z,18.74
2023-05-14T11:12:52.492Z,18.83
2023-05-14T11:15:27.735Z,18.94
2023-05-14T11:17:57.052Z,19.01
2023-05-14T11:20:25.314Z,19.24
2023-05-14T11:22:53.618Z,19.45
2023-05-14T11:25:23.706Z,19.35
2023-05-14T11:27:52.352Z,19.22
2023-05-14T11:30:22.748Z,19.38
2023-05-14T11:32:54.302Z,19.49
2023-05-14T11:35:23.247Z,19.66
2023-05-14T11:38:20.807Z,19.77
2023-05-14T11:41:09.151Z,19.88
2023-05-14T11:43:37.435Z,19.85
2023-05-14T11:46:07.171Z,19.92
2023-05-14T11:48:35.411Z,19.77
2023-05-14T11:51:05.220Z,19.59
2023-05-14T11:53:33.512Z,19.47
2023-05-14T11:56:03.412Z,19.39
2023-05-14T11:58:34.797Z,19.32
2023-05-14T12:01:03.314Z,19.45
2023-05-14T12:03:32.113Z,19.67
2023-05-14T12:06:02.446Z,19.82
2023-05-14T12:08:33.231Z,19.97
2023-05-14T12:11:02.086Z,20.09
2023-05-14T12:13:32.710Z,20.07
2023-05-14T12:16:04.121Z,20.11
2023-05-14T12:18:32.958Z,20.36
2023-05-14T12:26:42.411Z,20.10
2023-05-14T12:29:14.781Z,19.91
2023-05-14T12:31:51.825Z,19.88
2023-05-14T12:34:20.383Z,19.97
2023-05-14T12:36:48.551Z,19.87
2023-05-14T12:39:17.928Z,19.90
2023-05-14T12:41:46.009Z,19.94
2023-05-14T12:44:14.051Z,19.82
2023-05-14T12:46:42.552Z,19.88
2023-05-14T12:49:11.754Z,19.86
2023-05-14T12:51:40.225Z,19.66
2023-05-14T12:54:08.450Z,19.65
2023-05-14T12:56:39.187Z,19.58
2023-05-14T12:59:07.405Z,19.79
2023-05-14T13:01:35.729Z,20.00
2023-05-14T13:04:06.669Z,19.91
2023-05-14T13:06:35.299Z,19.69
2023-05-14T13:09:03.715Z,19.53
2023-05-14T13:11:32.830Z,19.56
2023-05-14T13:14:02.690Z,19.55
2023-05-14T13:16:31.442Z,19.51
2023-05-14T13:18:59.813Z,19.34
2023-05-14T13:21:42.767Z,19.33
2023-05-14T13:24:11.273Z,19.46
2023-05-14T13:26:39.314Z,19.41
2023-05-14T13:29:08.615Z,19.40
2023-05-14T13:31:37.284Z,19.40
2023-05-14T13:34:05.678Z,19.28
2023-05-14T13:36:34.216Z,19.38
2023-05-14T13:39:02.844Z,19.40
2023-05-14T13:41:35.701Z,19.38
2023-05-14T13:44:06.156Z,19.37
2023-05-14T13:46:34.517Z,19.45
2023-05-14T13:49:08.756Z,19.55
2023-05-14T13:51:37.126Z,19.61
2023-05-14T13:54:05.142Z,19.60
2023-05-14T13:56:33.498Z,19.61
2023-05-14T13:59:01.632Z,19.38
2023-05-14T14:01:32.417Z,19.43
2023-05-14T14:04:01.287Z,19.38
2023-05-14T14:06:35.284Z,19.34
2023-05-14T14:09:03.440Z,19.34
2023-05-14T14:11:31.729Z,19.30
2023-05-14T14:14:00.412Z,19.25
2023-05-14T14:16:28.648Z,19.31
2023-05-14T14:18:58.368Z,19.15
2023-05-14T14:21:28.006Z,19.10
2023-05-14T14:24:24.994Z,19.00
2023-05-14T14:26:53.171Z,18.86
2023-05-14T14:29:24.000Z,18.85
2023-05-14T14:31:53.574Z,18.79
2023-05-14T14:34:22.226Z,18.80
2023-05-14T14:36:50.642Z,18.88
2023-05-14T14:39:18.804Z,18.86
2023-05-14T14:41:48.000Z,18.82
2023-05-14T14:44:18.704Z,18.85
2023-05-14T14:46:50.483Z,18.97
2023-05-14T14:49:19.070Z,19.01
2023-05-14T14:51:48.722Z,19.01
2023-05-14T14:54:16.957Z,19.01
2023-05-14T14:56:46.360Z,18.93
2023-05-14T14:59:14.594Z,18.94
2023-05-14T15:01:43.262Z,18.92
2023-05-14T15:04:12.102Z,18.79
2023-05-14T15:06:40.384Z,18.66
2023-05-14T15:09:10.191Z,18.62
2023-05-14T15:11:38.919Z,18.72
2023-05-14T15:14:07.409Z,18.76
2023-05-14T15:16:36.084Z,18.76
2023-05-14T15:19:04.380Z,18.69
2023-05-14T15:21:33.002Z,18.52
2023-05-14T15:24:04.314Z,18.54
2023-05-14T15:26:35.903Z,18.63
2023-05-14T15:29:05.205Z,18.59
2023-05-14T15:31:33.824Z,18.52
2023-05-14T15:34:02.367Z,18.52
2023-05-14T15:36:33.205Z,18.58
2023-05-14T15:39:01.574Z,18.58
2023-05-14T15:41:33.338Z,18.55
2023-05-14T15:44:02.229Z,18.55
2023-05-14T15:46:30.830Z,18.59
2023-05-14T15:49:00.037Z,18.51
2023-05-14T15:51:28.447Z,18.38
2023-05-14T15:53:57.474Z,18.40
2023-05-14T15:56:26.714Z,18.44
2023-05-14T15:58:56.998Z,18.44
2023-05-14T16:01:25.357Z,18.40
2023-05-14T16:03:54.067Z,18.37
2023-05-14T16:06:22.742Z,18.38
2023-05-14T16:08:52.558Z,18.33
2023-05-14T16:11:21.661Z,18.24
2023-05-14T16:13:50.443Z,18.16
2023-05-14T16:16:21.221Z,18.12
2023-05-14T16:18:50.122Z,18.15
2023-05-14T16:21:18.852Z,18.17
2023-05-14T16:23:48.052Z,18.17
2023-05-14T16:26:16.395Z,18.10
2023-05-14T16:28:45.296Z,18.02
2023-05-14T16:31:14.727Z,17.95
2023-05-14T16:33:43.811Z,17.97
2023-05-14T16:36:11.959Z,17.93
2023-05-14T16:38:52.324Z,17.82
2023-05-14T16:41:29.422Z,17.86
2023-05-14T16:43:57.892Z,17.87
2023-05-14T16:46:26.698Z,17.79
2023-05-14T16:48:55.476Z,17.78
2023-05-14T16:51:24.834Z,17.73
2023-05-14T16:53:55.334Z,17.71
2023-05-14T16:56:27.415Z,17.71
2023-05-14T16:58:55.791Z,17.64
2023-05-14T17:01:23.969Z,17.59
2023-05-14T17:03:52.179Z,17.55
2023-05-14T17:06:21.731Z,17.54
2023-05-14T17:08:49.961Z,17.51
2023-05-14T17:11:18.828Z,17.55
2023-05-14T17:14:00.994Z,17.52
2023-05-14T17:16:28.814Z,17.45
2023-05-14T17:18:56.091Z,17.42
2023-05-14T17:21:24.471Z,17.36
2023-05-14T17:23:52.659Z,17.27
2023-05-14T17:26:21.465Z,17.23
2023-05-14T17:32:57.299Z,17.12
2023-05-14T17:35:26.318Z,17.05
2023-05-14T17:37:54.854Z,17.04
2023-05-14T17:40:23.133Z,17.01
2023-05-14T17:42:51.303Z,17.01
2023-05-14T17:45:24.361Z,16.98
2023-05-14T17:47:53.077Z,16.93
2023-05-14T17:50:21.389Z,16.92
2023-05-14T17:52:49.497Z,16.90
2023-05-14T17:55:19.974Z,16.86
2023-05-14T17:57:48.248Z,16.85
2023-05-14T18:00:18.058Z,16.80
2023-05-14T18:02:46.500Z,16.77
2023-05-14T18:05:14.915Z,16.73
2023-05-14T18:08:10.123Z,16.64
2023-05-14T18:10:39.324Z,16.59
2023-05-14T18:13:08.942Z,16.57
2023-05-14T18:15:37.223Z,16.50
2023-05-14T18:18:06.022Z,16.41
2023-05-14T18:20:36.737Z,16.28
2023-05-14T18:23:04.948Z,16.26
2023-05-14T18:25:34.136Z,16.20
2023-05-14T18:28:03.001Z,16.17
2023-05-14T18:30:31.471Z,16.12
2023-05-14T18:33:00.216Z,16.07
2023-05-14T18:35:29.560Z,16.07
2023-05-14T18:37:58.335Z,16.05
2023-05-14T18:40:26.616Z,16.01
2023-05-14T18:43:02.633Z,15.97
2023-05-14T18:45:31.067Z,15.94
2023-05-14T18:48:26.563Z,15.93
2023-05-14T18:50:54.833Z,15.96
2023-05-14T18:53:22.834Z,16.00
2023-05-14T18:55:51.387Z,16.01
2023-05-14T18:58:21.504Z,16.05
2023-05-14T19:00:49.605Z,16.08
2023-05-14T19:03:20.940Z,16.10
2023-05-14T19:05:51.763Z,16.10
2023-05-14T19:08:20.030Z,16.00
2023-05-14T19:10:48.667Z,15.87
2023-05-14T19:13:16.711Z,15.80
2023-05-14T19:15:45.021Z,15.77
2023-05-14T19:18:41.627Z,15.66
2023-05-14T19:21:12.545Z,15.58
2023-05-14T19:23:42.178Z,15.57
